Aviation Digital Data Service (ADDS)

Output produced by METARs form (1650 UTC 16 June 2019)
found at http://www.aviationweather.gov/metar/data/
 
LUKK 161630Z 04006KT CAVOK 31/15 Q1012 R08/D NOSIG
TAF LUKK 161120Z 1612/1712 10008KT 9999 SCT045 
     TEMPO 1612/1617 SCT045CB 
     TEMPO 1709/1712 SCT040CB